createdAt,value
2023-03-11T00:00:29.275Z,6.90
2023-03-11T00:03:17.872Z,5.50
2023-03-11T00:05:45.973Z,5.70
2023-03-11T00:08:15.924Z,4.80
2023-03-11T00:10:44.581Z,6.20
2023-03-11T00:13:13.294Z,5.80
2023-03-11T00:15:41.902Z,8.70
2023-03-11T00:18:08.865Z,9.70
2023-03-11T00:20:38.002Z,11.90
2023-03-11T00:23:06.514Z,10.40
2023-03-11T00:25:35.339Z,13.30
2023-03-11T00:28:02.723Z,10.90
2023-03-11T00:30:29.638Z,8.70
2023-03-11T00:32:58.166Z,8.10
2023-03-11T00:35:28.407Z,7.40
2023-03-11T00:37:57.954Z,8.00
2023-03-11T00:40:27.347Z,8.30
2023-03-11T00:42:54.073Z,8.10
2023-03-11T00:45:21.292Z,7.80
2023-03-11T00:47:47.906Z,7.50
2023-03-11T00:50:18.472Z,7.90
2023-03-11T00:52:46.291Z,7.30
2023-03-11T00:55:16.132Z,7.40
2023-03-11T00:57:43.367Z,6.60
2023-03-11T01:00:18.549Z,6.40
2023-03-11T01:02:45.644Z,6.80
2023-03-11T01:05:12.562Z,7.00
2023-03-11T01:07:39.492Z,6.20
2023-03-11T01:10:09.194Z,7.30
2023-03-11T01:12:35.815Z,6.30
2023-03-11T01:15:03.870Z,5.60
2023-03-11T01:17:30.503Z,6.50
2023-03-11T01:19:57.251Z,5.80
2023-03-11T01:22:24.144Z,5.40
2023-03-11T01:24:50.738Z,6.00
2023-03-11T01:27:17.331Z,6.70
2023-03-11T01:29:43.959Z,5.40
2023-03-11T01:32:10.747Z,5.40
2023-03-11T01:34:37.411Z,5.60
2023-03-11T01:37:04.258Z,4.80
2023-03-11T01:39:31.011Z,5.10
2023-03-11T01:41:57.905Z,5.10
2023-03-11T01:44:24.999Z,4.60
2023-03-11T01:46:52.150Z,4.20
2023-03-11T01:49:22.096Z,4.60
2023-03-11T01:51:56.666Z,3.80
2023-03-11T01:54:33.185Z,3.00
2023-03-11T01:57:04.712Z,3.10
2023-03-11T01:59:35.518Z,3.40
2023-03-11T02:02:02.324Z,3.20
2023-03-11T02:04:28.917Z,3.20
2023-03-11T02:06:56.722Z,2.80
2023-03-11T02:09:23.597Z,2.40
2023-03-11T02:11:50.787Z,2.80
2023-03-11T02:14:18.842Z,2.50
2023-03-11T02:16:45.702Z,3.20
2023-03-11T02:19:28.205Z,2.30
2023-03-11T02:21:56.120Z,2.30
2023-03-11T02:24:29.490Z,2.80
2023-03-11T02:27:00.911Z,2.20
2023-03-11T02:29:29.353Z,2.00
2023-03-11T02:31:58.059Z,2.00
2023-03-11T02:34:36.591Z,2.40
2023-03-11T02:37:06.102Z,2.20
2023-03-11T02:39:39.926Z,2.10
2023-03-11T02:42:22.214Z,2.10
2023-03-11T02:44:58.329Z,2.00
2023-03-11T02:47:27.888Z,1.70
2023-03-11T02:49:56.311Z,2.10
2023-03-11T02:52:28.209Z,1.30
2023-03-11T02:54:54.942Z,1.90
2023-03-11T02:57:21.614Z,2.00
2023-03-11T02:59:48.267Z,1.60
2023-03-11T03:02:15.163Z,2.20
2023-03-11T03:04:42.240Z,1.60
2023-03-11T03:07:08.915Z,1.80
2023-03-11T03:09:37.458Z,2.20
2023-03-11T03:12:04.368Z,1.10
2023-03-11T03:14:31.818Z,1.40
2023-03-11T03:16:58.849Z,1.50
2023-03-11T03:19:25.615Z,2.20
2023-03-11T03:21:52.867Z,1.80
2023-03-11T03:24:20.900Z,2.10
2023-03-11T03:26:48.070Z,1.70
2023-03-11T03:29:14.625Z,1.90
2023-03-11T03:31:41.630Z,2.70
2023-03-11T03:34:08.661Z,2.20
2023-03-11T03:36:35.570Z,2.70
2023-03-11T03:39:04.694Z,2.60
2023-03-11T03:41:34.274Z,2.60
2023-03-11T03:44:01.913Z,2.50
2023-03-11T03:46:29.290Z,2.20
2023-03-11T03:48:57.945Z,2.50
2023-03-11T03:51:24.822Z,1.90
2023-03-11T03:54:11.149Z,1.70
2023-03-11T03:56:37.798Z,1.50
2023-03-11T03:59:04.455Z,1.50
2023-03-11T04:01:36.569Z,1.60
2023-03-11T04:04:21.851Z,0.90
2023-03-11T04:06:48.840Z,1.20
2023-03-11T04:09:18.575Z,1.00
2023-03-11T04:11:45.810Z,1.10
2023-03-11T04:14:13.536Z,1.10
2023-03-11T04:16:43.930Z,1.10
2023-03-11T04:19:11.695Z,0.90
2023-03-11T04:21:38.684Z,0.80
2023-03-11T04:24:05.621Z,1.00
2023-03-11T04:26:35.196Z,1.00
2023-03-11T04:29:02.820Z,1.00
2023-03-11T04:31:31.449Z,0.60
2023-03-11T04:33:59.512Z,0.80
2023-03-11T04:36:26.520Z,0.80
2023-03-11T04:38:54.597Z,0.80
2023-03-11T04:41:21.435Z,0.80
2023-03-11T04:43:48.862Z,0.70
2023-03-11T04:46:15.863Z,0.70
2023-03-11T04:48:42.699Z,0.80
2023-03-11T04:51:09.418Z,0.70
2023-03-11T04:53:36.400Z,1.00
2023-03-11T04:56:03.774Z,0.60
2023-03-11T04:58:30.988Z,0.50
2023-03-11T05:00:57.901Z,0.80
2023-03-11T05:03:24.704Z,0.80
2023-03-11T05:05:54.446Z,0.80
2023-03-11T05:08:21.698Z,1.30
2023-03-11T05:10:48.318Z,0.60
2023-03-11T05:13:15.236Z,0.70
2023-03-11T05:15:41.970Z,1.10
2023-03-11T05:18:08.650Z,1.10
2023-03-11T05:20:36.576Z,0.90
2023-03-11T05:23:03.835Z,0.80
2023-03-11T05:25:31.233Z,1.30
2023-03-11T05:27:58.491Z,0.80
2023-03-11T05:30:25.297Z,0.90
2023-03-11T05:32:52.207Z,1.60
2023-03-11T05:35:20.258Z,1.10
2023-03-11T05:37:49.097Z,1.40
2023-03-11T05:40:16.204Z,2.00
2023-03-11T05:42:43.216Z,1.10
2023-03-11T05:45:11.321Z,1.70
2023-03-11T05:47:38.073Z,1.50
2023-03-11T05:50:06.018Z,1.10
2023-03-11T05:52:33.253Z,1.30
2023-03-11T05:55:00.265Z,1.40
2023-03-11T05:57:28.365Z,1.50
2023-03-11T05:59:55.648Z,1.40
2023-03-11T06:02:22.699Z,1.80
2023-03-11T06:04:49.907Z,2.00
2023-03-11T06:07:16.720Z,7.10
2023-03-11T06:09:45.264Z,4.70
2023-03-11T06:12:15.385Z,3.40
2023-03-11T06:14:50.487Z,7.10
2023-03-11T06:17:17.347Z,2.40
2023-03-11T06:19:43.951Z,2.30
2023-03-11T06:22:10.455Z,3.50
2023-03-11T06:24:37.486Z,5.80
2023-03-11T06:27:04.676Z,4.50
2023-03-11T06:29:31.733Z,2.30
2023-03-11T06:31:58.870Z,2.60
2023-03-11T06:34:25.445Z,2.50
2023-03-11T06:36:52.245Z,2.50
2023-03-11T06:39:19.102Z,2.60
2023-03-11T06:41:47.169Z,2.70
2023-03-11T06:44:14.011Z,2.40
2023-03-11T06:46:40.856Z,3.00
2023-03-11T06:49:07.388Z,3.20
2023-03-11T06:51:34.167Z,3.50
2023-03-11T06:54:01.901Z,3.10
2023-03-11T06:56:28.501Z,3.10
2023-03-11T06:59:01.566Z,3.00
2023-03-11T07:01:31.792Z,3.00
2023-03-11T07:03:59.666Z,2.40
2023-03-11T07:06:27.802Z,2.80
2023-03-11T07:09:00.996Z,3.00
2023-03-11T07:11:28.542Z,3.40
2023-03-11T07:14:03.984Z,3.60
2023-03-11T07:16:31.831Z,3.00
2023-03-11T07:19:03.758Z,3.30
2023-03-11T07:21:32.301Z,3.80
2023-03-11T07:24:01.575Z,3.30
2023-03-11T07:26:30.040Z,3.40
2023-03-11T07:28:57.415Z,3.60
2023-03-11T07:31:27.130Z,4.30
2023-03-11T07:33:53.751Z,3.50
2023-03-11T07:36:22.763Z,4.00
2023-03-11T07:38:55.264Z,4.60
2023-03-11T07:41:22.165Z,4.70
2023-03-11T07:43:48.746Z,4.00
2023-03-11T07:46:17.831Z,4.60
2023-03-11T07:48:45.241Z,4.90
2023-03-11T07:51:15.259Z,4.50
2023-03-11T07:53:42.311Z,5.10
2023-03-11T07:56:11.377Z,5.00
2023-03-11T07:58:38.486Z,4.10
2023-03-11T08:01:15.494Z,5.70
2023-03-11T08:03:46.728Z,4.90
2023-03-11T08:06:17.433Z,5.90
2023-03-11T08:08:44.369Z,6.00
2023-03-11T08:11:15.405Z,6.70
2023-03-11T08:13:43.877Z,5.70
2023-03-11T08:16:13.373Z,6.40
2023-03-11T08:18:40.406Z,5.50
2023-03-11T08:21:09.410Z,4.80
2023-03-11T08:23:36.076Z,6.20
2023-03-11T08:26:04.439Z,5.40
2023-03-11T08:28:31.110Z,4.50
2023-03-11T08:30:57.804Z,4.50
2023-03-11T08:33:24.511Z,4.40
2023-03-11T08:35:51.221Z,3.30
2023-03-11T08:38:17.879Z,2.70
2023-03-11T08:40:44.478Z,2.90
2023-03-11T08:43:14.678Z,2.90
2023-03-11T08:45:41.684Z,2.50
2023-03-11T08:48:10.504Z,1.70
2023-03-11T08:50:52.865Z,2.00
2023-03-11T08:53:22.555Z,1.80
2023-03-11T08:55:52.589Z,1.50
2023-03-11T08:58:20.021Z,1.90
2023-03-11T09:00:47.450Z,2.40
2023-03-11T09:03:14.106Z,2.80
2023-03-11T09:05:40.744Z,1.50
2023-03-11T09:08:07.897Z,1.90
2023-03-11T09:10:34.638Z,1.80
2023-03-11T09:13:01.279Z,4.70
2023-03-11T09:15:28.149Z,7.20
2023-03-11T09:17:55.232Z,7.80
2023-03-11T09:20:22.172Z,7.30
2023-03-11T09:22:48.957Z,7.50
2023-03-11T09:25:16.033Z,9.40
2023-03-11T09:27:42.626Z,10.00
2023-03-11T09:30:10.345Z,9.40
2023-03-11T09:32:37.127Z,9.10
2023-03-11T09:35:04.602Z,8.40
2023-03-11T09:37:31.543Z,7.40
2023-03-11T09:39:58.080Z,6.50
2023-03-11T09:42:42.943Z,6.00
2023-03-11T09:45:26.933Z,6.70
2023-03-11T09:48:07.656Z,5.40
2023-03-11T09:50:49.837Z,6.00
2023-03-11T09:53:18.302Z,3.70
2023-03-11T09:55:59.403Z,3.40
2023-03-11T09:58:43.731Z,2.30
2023-03-11T10:01:25.885Z,1.90
2023-03-11T10:03:56.122Z,2.00
2023-03-11T10:06:25.234Z,1.20
2023-03-11T10:09:00.163Z,1.30
2023-03-11T10:11:33.512Z,0.90
2023-03-11T10:14:36.552Z,1.40
2023-03-11T10:17:21.606Z,0.90
2023-03-11T10:20:06.372Z,1.40
2023-03-11T10:22:36.246Z,1.40
2023-03-11T10:25:13.738Z,1.30
2023-03-11T10:27:48.074Z,1.70
2023-03-11T10:30:47.143Z,1.10
2023-03-11T10:33:58.400Z,3.30
2023-03-11T10:36:40.408Z,2.20
2023-03-11T10:39:10.382Z,1.40
2023-03-11T10:41:44.299Z,2.30
2023-03-11T10:44:16.186Z,2.20
2023-03-11T10:46:42.891Z,2.40
2023-03-11T10:49:15.024Z,2.10
2023-03-11T10:51:45.870Z,2.40
2023-03-11T10:54:43.362Z,2.10
2023-03-11T10:57:22.057Z,2.30
2023-03-11T10:59:54.656Z,2.20
2023-03-11T11:02:25.699Z,1.80
2023-03-11T11:05:17.300Z,2.10
2023-03-11T11:07:45.881Z,1.20
2023-03-11T11:10:27.343Z,1.10
2023-03-11T11:13:00.465Z,1.50
2023-03-11T11:15:42.330Z,0.90
2023-03-11T11:18:16.948Z,1.50
2023-03-11T11:20:56.395Z,1.20
2023-03-11T11:23:51.598Z,1.50
2023-03-11T11:26:24.763Z,1.50
2023-03-11T11:29:09.758Z,1.40
2023-03-11T11:31:38.205Z,2.30
2023-03-11T11:34:26.815Z,1.20
2023-03-11T11:36:56.696Z,1.40
2023-03-11T11:39:29.939Z,1.30
2023-03-11T11:41:57.218Z,2.30
2023-03-11T11:44:34.211Z,1.40
2023-03-11T11:47:34.473Z,1.10
2023-03-11T11:50:04.612Z,1.90
2023-03-11T11:52:37.200Z,1.80
2023-03-11T11:55:16.676Z,1.30
2023-03-11T11:57:43.704Z,1.60
2023-03-11T12:00:21.530Z,2.10
2023-03-11T12:03:35.887Z,2.70
2023-03-11T12:06:27.740Z,1.90
2023-03-11T12:09:08.335Z,1.80
2023-03-11T12:11:50.288Z,2.10
2023-03-11T12:14:24.869Z,2.80
2023-03-11T12:17:03.668Z,2.40
2023-03-11T12:19:36.913Z,2.20
2023-03-11T12:22:18.324Z,1.80
2023-03-11T12:25:03.831Z,1.70
2023-03-11T12:27:37.061Z,2.50
2023-03-11T12:30:12.528Z,1.80
2023-03-11T12:33:03.154Z,2.30
2023-03-11T12:35:35.174Z,4.10
2023-03-11T12:38:34.075Z,3.10
2023-03-11T12:41:06.364Z,2.80
2023-03-11T12:43:33.189Z,3.60
2023-03-11T12:46:01.864Z,3.00
2023-03-11T12:48:42.073Z,2.90
2023-03-11T12:51:27.072Z,2.10
2023-03-11T12:53:55.218Z,1.60
2023-03-11T12:56:30.873Z,2.00
2023-03-11T12:59:15.837Z,2.40
2023-03-11T13:01:57.636Z,2.20
2023-03-11T13:04:42.801Z,2.40
2023-03-11T13:07:21.439Z,2.40
2023-03-11T13:10:06.894Z,2.90
2023-03-11T13:12:39.775Z,3.20
2023-03-11T13:15:19.311Z,2.60
2023-03-11T13:18:14.397Z,2.20
2023-03-11T13:20:41.165Z,1.70
2023-03-11T13:23:13.806Z,3.60
2023-03-11T13:25:49.716Z,2.00
2023-03-11T13:28:35.291Z,5.40
2023-03-11T13:31:40.772Z,3.20
2023-03-11T13:34:15.728Z,2.20
2023-03-11T13:36:56.737Z,2.40
2023-03-11T13:40:05.932Z,1.70
2023-03-11T13:42:50.786Z,1.90
2023-03-11T13:45:29.656Z,2.40
2023-03-11T13:48:02.150Z,1.90
2023-03-11T13:50:44.502Z,2.50
2023-03-11T13:53:29.627Z,2.00
2023-03-11T13:55:56.463Z,2.30
2023-03-11T13:58:25.536Z,3.20
2023-03-11T14:00:58.340Z,3.00
2023-03-11T14:03:28.629Z,2.20
2023-03-11T14:06:02.149Z,2.30
2023-03-11T14:08:34.771Z,2.40
2023-03-11T14:11:03.779Z,2.10
2023-03-11T14:13:33.257Z,2.30
2023-03-11T14:16:02.958Z,2.90
2023-03-11T14:18:33.240Z,2.40
2023-03-11T14:21:00.985Z,2.00
2023-03-11T14:23:32.399Z,2.50
2023-03-11T14:26:02.033Z,1.70
2023-03-11T14:28:32.595Z,2.50
2023-03-11T14:31:01.410Z,1.90
2023-03-11T14:33:28.502Z,2.00
2023-03-11T14:36:01.542Z,1.70
2023-03-11T14:38:31.284Z,1.50
2023-03-11T14:41:00.553Z,1.50
2023-03-11T14:43:34.456Z,1.50
2023-03-11T14:46:03.870Z,1.50
2023-03-11T14:48:37.418Z,5.00
2023-03-11T14:51:10.064Z,3.80
2023-03-11T14:53:43.146Z,2.10
2023-03-11T14:56:18.321Z,1.80
2023-03-11T14:59:06.456Z,2.20
2023-03-11T15:01:40.039Z,2.90
2023-03-11T15:04:07.028Z,2.90
2023-03-11T15:06:38.647Z,1.40
2023-03-11T15:09:16.223Z,3.00
2023-03-11T15:12:03.879Z,2.30
2023-03-11T15:14:33.614Z,2.50
2023-03-11T15:17:35.430Z,1.30
2023-03-11T15:20:23.660Z,1.20
2023-03-11T15:23:05.870Z,1.80
2023-03-11T15:25:36.772Z,1.70
2023-03-11T15:28:39.348Z,1.00
2023-03-11T15:31:19.803Z,1.50
2023-03-11T15:33:47.518Z,1.40
2023-03-11T15:36:39.001Z,1.60
2023-03-11T15:39:16.964Z,2.00
2023-03-11T15:41:47.355Z,5.00
2023-03-11T15:44:24.717Z,1.90
2023-03-11T15:46:52.677Z,6.90
2023-03-11T15:49:19.743Z,3.70
2023-03-11T15:51:47.021Z,5.50
2023-03-11T15:54:14.200Z,3.10
2023-03-11T15:56:41.823Z,1.40
2023-03-11T15:59:15.975Z,0.90
2023-03-11T16:01:43.014Z,0.90
2023-03-11T16:04:14.996Z,1.20
2023-03-11T16:06:42.892Z,1.20
2023-03-11T16:09:10.708Z,0.90
2023-03-11T16:11:38.424Z,0.60
2023-03-11T16:14:05.749Z,0.70
2023-03-11T16:16:32.696Z,0.80
2023-03-11T16:18:59.254Z,0.80
2023-03-11T16:21:33.986Z,1.50
2023-03-11T16:24:00.784Z,0.90
2023-03-11T16:26:27.559Z,0.50
2023-03-11T16:28:54.327Z,0.80
2023-03-11T16:31:21.259Z,0.60
2023-03-11T16:33:47.806Z,1.00
2023-03-11T16:36:14.421Z,0.50
2023-03-11T16:38:49.608Z,0.50
2023-03-11T16:41:17.036Z,0.30
2023-03-11T16:43:44.381Z,0.30
2023-03-11T16:46:11.296Z,0.30
2023-03-11T16:48:42.083Z,0.40
2023-03-11T16:51:14.765Z,0.70
2023-03-11T16:53:41.372Z,0.40
2023-03-11T16:56:07.972Z,0.70
2023-03-11T16:58:34.827Z,0.50
2023-03-11T17:01:01.377Z,0.50
2023-03-11T17:03:34.460Z,0.30
2023-03-11T17:06:07.836Z,0.40
2023-03-11T17:08:34.629Z,0.30
2023-03-11T17:11:01.250Z,0.40
2023-03-11T17:13:27.999Z,0.40
2023-03-11T17:16:02.355Z,0.40
2023-03-11T17:18:29.195Z,0.70
2023-03-11T17:20:55.690Z,0.70
2023-03-11T17:23:22.858Z,0.50
2023-03-11T17:25:49.640Z,0.40
2023-03-11T17:28:16.294Z,0.70
2023-03-11T17:30:44.506Z,0.40
2023-03-11T17:33:11.326Z,0.40
2023-03-11T17:35:37.996Z,0.60
2023-03-11T17:38:05.191Z,0.60
2023-03-11T17:40:32.148Z,0.70
2023-03-11T17:42:59.324Z,0.70
2023-03-11T17:45:25.999Z,0.60
2023-03-11T17:47:52.720Z,0.30
2023-03-11T17:50:19.410Z,0.40
2023-03-11T17:52:46.797Z,0.30
2023-03-11T17:55:13.322Z,0.60
2023-03-11T17:57:45.402Z,0.50
2023-03-11T18:00:14.200Z,0.30
2023-03-11T18:02:41.036Z,0.40
2023-03-11T18:05:08.709Z,0.40
2023-03-11T18:07:38.536Z,0.30
2023-03-11T18:10:07.107Z,0.40
2023-03-11T18:12:33.698Z,0.40
2023-03-11T18:15:05.489Z,0.30
2023-03-11T18:17:34.808Z,0.30
2023-03-11T18:20:01.785Z,0.20
2023-03-11T18:22:28.557Z,0.30
2023-03-11T18:24:55.430Z,0.20
2023-03-11T18:27:23.878Z,0.30
2023-03-11T18:29:51.361Z,0.10
2023-03-11T18:32:22.790Z,0.20
2023-03-11T18:34:50.617Z,0.20
2023-03-11T18:37:17.423Z,0.40
2023-03-11T18:39:44.204Z,0.40
2023-03-11T18:42:13.387Z,0.20
2023-03-11T18:44:41.464Z,0.20
2023-03-11T18:47:08.613Z,0.30
2023-03-11T18:49:35.269Z,0.30
2023-03-11T18:52:01.933Z,0.20
2023-03-11T18:54:28.689Z,0.20
2023-03-11T18:56:55.203Z,0.20
2023-03-11T18:59:21.950Z,0.20
2023-03-11T19:01:50.334Z,0.20
2023-03-11T19:04:18.219Z,0.20
2023-03-11T19:06:45.450Z,0.20
2023-03-11T19:09:12.296Z,0.30
2023-03-11T19:11:38.810Z,0.20
2023-03-11T19:14:05.530Z,0.20
2023-03-11T19:16:32.477Z,0.20
2023-03-11T19:19:01.149Z,0.20
2023-03-11T19:21:28.438Z,0.30
2023-03-11T19:23:56.709Z,0.30
2023-03-11T19:26:41.386Z,0.30
2023-03-11T19:29:13.157Z,0.30
2023-03-11T19:31:40.202Z,0.20
2023-03-11T19:34:07.820Z,0.30
2023-03-11T19:36:35.441Z,0.40
2023-03-11T19:39:02.963Z,0.30
2023-03-11T19:41:29.730Z,0.40
2023-03-11T19:43:56.647Z,1.00
2023-03-11T19:46:23.345Z,0.50
2023-03-11T19:48:50.274Z,0.40
2023-03-11T19:51:19.097Z,0.40
2023-03-11T19:53:46.654Z,0.20
2023-03-11T19:56:13.665Z,0.30
2023-03-11T19:58:42.409Z,0.30
2023-03-11T20:01:18.424Z,0.50
2023-03-11T20:04:02.229Z,0.30
2023-03-11T20:06:30.589Z,0.50
2023-03-11T20:08:57.620Z,0.60
2023-03-11T20:11:24.518Z,0.40
2023-03-11T20:13:51.188Z,0.40
2023-03-11T20:16:19.276Z,0.50
2023-03-11T20:18:51.050Z,0.40
2023-03-11T20:21:18.273Z,0.30
2023-03-11T20:23:45.017Z,0.40
2023-03-11T20:26:14.757Z,0.70
2023-03-11T20:28:42.339Z,0.70
2023-03-11T20:31:11.606Z,0.70
2023-03-11T20:33:39.658Z,0.50
2023-03-11T20:36:10.461Z,0.90
2023-03-11T20:38:39.410Z,0.90
2023-03-11T20:41:11.030Z,0.70
2023-03-11T20:43:39.955Z,0.80
2023-03-11T20:46:09.027Z,0.50
2023-03-11T20:48:39.330Z,0.70
2023-03-11T20:51:12.151Z,0.80
2023-03-11T20:53:40.116Z,0.50
2023-03-11T20:56:15.801Z,0.80
2023-03-11T20:58:43.963Z,0.60
2023-03-11T21:01:22.347Z,0.60
2023-03-11T21:03:49.646Z,0.70
2023-03-11T21:06:21.337Z,0.60
2023-03-11T21:08:49.435Z,0.40
2023-03-11T21:11:16.946Z,0.70
2023-03-11T21:13:43.821Z,0.80
2023-03-11T21:16:11.081Z,0.70
2023-03-11T21:18:38.354Z,0.50
2023-03-11T21:21:07.632Z,0.90
2023-03-11T21:23:35.275Z,0.70
2023-03-11T21:26:03.905Z,0.60
2023-03-11T21:28:31.716Z,0.90
2023-03-11T21:31:05.015Z,0.80
2023-03-11T21:33:32.187Z,0.80
2023-03-11T21:36:00.398Z,0.90
2023-03-11T21:38:28.620Z,0.90
2023-03-11T21:41:09.740Z,1.00
2023-03-11T21:43:37.583Z,1.00
2023-03-11T21:46:05.471Z,0.90
2023-03-11T21:48:33.000Z,0.70
2023-03-11T21:51:00.589Z,1.10
2023-03-11T21:53:28.821Z,0.80
2023-03-11T21:55:55.855Z,1.40
2023-03-11T21:58:22.979Z,1.00
2023-03-11T22:00:49.969Z,0.80
2023-03-11T22:03:18.329Z,0.70
2023-03-11T22:05:45.147Z,0.80
2023-03-11T22:08:13.949Z,0.70
2023-03-11T22:10:41.338Z,0.90
2023-03-11T22:13:08.256Z,0.50
2023-03-11T22:15:36.172Z,0.90
2023-03-11T22:18:03.130Z,0.90
2023-03-11T22:20:30.208Z,0.80
2023-03-11T22:22:57.046Z,0.70
2023-03-11T22:25:23.601Z,0.90
2023-03-11T22:27:50.360Z,0.60
2023-03-11T22:30:17.092Z,0.80
2023-03-11T22:32:43.791Z,0.80
2023-03-11T22:35:10.727Z,0.90
2023-03-11T22:37:37.605Z,0.80
2023-03-11T22:40:08.282Z,0.50
2023-03-11T22:42:35.812Z,0.80
2023-03-11T22:45:04.749Z,1.10
2023-03-11T22:47:31.340Z,1.10
2023-03-11T22:49:58.072Z,1.40
2023-03-11T22:52:26.008Z,1.60
2023-03-11T22:54:52.630Z,0.80
2023-03-11T22:57:19.468Z,0.90
2023-03-11T22:59:46.141Z,0.90
2023-03-11T23:02:12.800Z,1.20
2023-03-11T23:04:39.635Z,0.60
2023-03-11T23:07:06.500Z,1.30
2023-03-11T23:09:34.310Z,1.40
2023-03-11T23:12:03.250Z,0.90
2023-03-11T23:14:43.706Z,1.30
2023-03-11T23:17:12.250Z,2.00
2023-03-11T23:19:39.449Z,1.50
2023-03-11T23:22:06.389Z,2.00
2023-03-11T23:24:33.470Z,2.40
2023-03-11T23:27:03.933Z,2.30
2023-03-11T23:29:31.323Z,2.20
2023-03-11T23:31:58.287Z,2.80
2023-03-11T23:34:25.274Z,2.90
2023-03-11T23:36:51.978Z,1.60
2023-03-11T23:39:18.838Z,3.60
2023-03-11T23:41:45.349Z,2.40
2023-03-11T23:44:13.691Z,1.30
2023-03-11T23:46:40.535Z,1.60
2023-03-11T23:49:07.357Z,1.30
2023-03-11T23:51:33.828Z,1.90
2023-03-11T23:54:00.423Z,1.90
2023-03-11T23:56:27.446Z,1.80
2023-03-11T23:58:53.877Z,2.10
